createdAt,value
2018-02-14T00:01:21.015Z,82.10
2018-02-14T00:03:50.637Z,82.20
2018-02-14T00:06:18.209Z,82.20
2018-02-14T00:08:46.005Z,82.20
2018-02-14T00:11:13.651Z,82.10
2018-02-14T00:13:41.241Z,82.10
2018-02-14T00:16:09.506Z,81.50
2018-02-14T00:18:37.065Z,81.50
2018-02-14T00:21:04.621Z,82.30
2018-02-14T00:23:32.466Z,82.00
2018-02-14T00:26:00.028Z,81.20
2018-02-14T00:28:27.630Z,80.80
2018-02-14T00:30:55.515Z,81.60
2018-02-14T00:33:23.115Z,81.20
2018-02-14T00:35:50.746Z,81.50
2018-02-14T00:38:18.818Z,81.70
2018-02-14T00:40:46.390Z,82.00
2018-02-14T00:43:15.465Z,81.20
2018-02-14T00:45:43.464Z,81.70
2018-02-14T00:48:11.554Z,81.60
2018-02-14T00:50:39.917Z,81.60
2018-02-14T00:53:07.600Z,81.50
2018-02-14T00:55:35.984Z,81.60
2018-02-14T00:58:04.404Z,82.00
2018-02-14T01:00:32.228Z,81.90
2018-02-14T01:02:59.802Z,82.20
2018-02-14T01:05:29.019Z,82.80
2018-02-14T01:07:56.706Z,82.80
2018-02-14T01:10:24.777Z,82.80
2018-02-14T01:12:53.094Z,83.00
2018-02-14T01:15:21.395Z,83.20
2018-02-14T01:17:49.821Z,82.80
2018-02-14T01:20:17.497Z,82.80
2018-02-14T01:22:45.098Z,82.80
2018-02-14T01:25:13.374Z,82.90
2018-02-14T01:27:41.012Z,82.50
2018-02-14T01:30:08.570Z,82.40
2018-02-14T01:32:36.150Z,82.40
2018-02-14T01:35:05.274Z,82.50
2018-02-14T01:37:33.643Z,82.90
2018-02-14T01:40:01.219Z,82.90
2018-02-14T01:42:28.797Z,84.10
2018-02-14T01:44:56.403Z,84.00
2018-02-14T01:47:24.811Z,83.60
2018-02-14T01:49:52.358Z,83.20
2018-02-14T01:52:19.913Z,83.00
2018-02-14T01:54:47.502Z,82.90
2018-02-14T01:57:15.828Z,82.60
2018-02-14T01:59:43.412Z,82.60
2018-02-14T02:02:10.961Z,82.80
2018-02-14T02:04:38.561Z,83.10
2018-02-14T02:07:06.119Z,83.00
2018-02-14T02:09:35.214Z,82.90
2018-02-14T02:12:02.863Z,82.90
2018-02-14T02:14:30.466Z,82.70
2018-02-14T02:16:59.035Z,82.70
2018-02-14T02:19:26.642Z,82.60
2018-02-14T02:21:54.250Z,82.60
2018-02-14T02:24:22.614Z,81.80
2018-02-14T02:26:50.185Z,81.70
2018-02-14T02:29:18.068Z,81.80
2018-02-14T02:31:45.627Z,82.00
2018-02-14T02:34:13.225Z,82.10
2018-02-14T02:36:41.572Z,82.40
2018-02-14T02:39:21.442Z,82.40
2018-02-14T02:41:50.297Z,82.10
2018-02-14T02:44:19.075Z,82.10
2018-02-14T02:46:46.880Z,82.10
2018-02-14T02:49:14.455Z,82.10
2018-02-14T02:51:42.032Z,81.70
2018-02-14T02:54:10.668Z,81.40
2018-02-14T02:56:38.238Z,81.40
2018-02-14T02:59:05.961Z,81.40
2018-02-14T03:01:33.573Z,81.70
2018-02-14T03:04:01.138Z,81.40
2018-02-14T03:06:28.726Z,81.20
2018-02-14T03:08:56.326Z,81.20
2018-02-14T03:11:23.976Z,81.30
2018-02-14T03:13:52.656Z,81.40
2018-02-14T03:16:20.975Z,81.30
2018-02-14T03:18:48.529Z,81.30
2018-02-14T03:21:16.107Z,81.90
2018-02-14T03:23:43.661Z,82.30
2018-02-14T03:26:11.250Z,82.30
2018-02-14T03:28:38.807Z,82.90
2018-02-14T03:31:06.929Z,83.30
2018-02-14T03:33:34.502Z,83.20
2018-02-14T03:36:02.078Z,83.30
2018-02-14T03:38:30.292Z,83.20
2018-02-14T03:40:57.850Z,83.20
2018-02-14T03:43:25.656Z,83.10
2018-02-14T03:45:53.613Z,83.10
2018-02-14T03:48:21.165Z,83.90
2018-02-14T03:50:48.726Z,83.50
2018-02-14T03:53:16.318Z,83.50
2018-02-14T03:55:43.911Z,84.00
2018-02-14T03:58:12.019Z,84.40
2018-02-14T04:00:39.578Z,84.40
2018-02-14T04:03:07.159Z,84.20
2018-02-14T04:05:35.509Z,84.30
2018-02-14T04:08:03.073Z,84.10
2018-02-14T04:10:30.661Z,84.40
2018-02-14T04:12:59.725Z,84.10
2018-02-14T04:15:27.379Z,84.10
2018-02-14T04:17:54.957Z,83.40
2018-02-14T04:20:22.969Z,82.60
2018-02-14T04:22:50.562Z,82.30
2018-02-14T04:25:18.573Z,82.30
2018-02-14T04:27:46.126Z,81.90
2018-02-14T04:30:27.466Z,81.40
2018-02-14T04:32:55.100Z,81.00
2018-02-14T04:35:22.710Z,80.50
2018-02-14T04:37:51.005Z,80.10
2018-02-14T04:40:18.572Z,80.00
2018-02-14T04:42:46.173Z,79.90
2018-02-14T04:45:13.734Z,79.70
2018-02-14T04:47:41.626Z,79.50
2018-02-14T04:50:09.228Z,79.80
2018-02-14T04:52:36.909Z,79.50
2018-02-14T04:55:04.483Z,79.40
2018-02-14T04:57:33.586Z,79.20
2018-02-14T05:00:01.137Z,79.20
2018-02-14T05:02:28.723Z,79.20
2018-02-14T05:04:56.278Z,79.90
2018-02-14T05:07:24.102Z,79.60
2018-02-14T05:09:51.698Z,79.30
2018-02-14T05:12:19.288Z,79.50
2018-02-14T05:14:46.841Z,78.90
2018-02-14T05:17:16.022Z,78.70
2018-02-14T05:19:43.866Z,78.60
2018-02-14T05:22:11.419Z,78.80
2018-02-14T05:24:38.997Z,78.40
2018-02-14T05:27:06.561Z,78.30
2018-02-14T05:29:34.204Z,77.60
2018-02-14T05:32:01.766Z,77.60
2018-02-14T05:34:29.342Z,77.40
2018-02-14T05:36:56.929Z,76.60
2018-02-14T05:39:24.755Z,76.20
2018-02-14T05:41:52.366Z,76.10
2018-02-14T05:44:19.928Z,75.80
2018-02-14T05:46:47.557Z,75.50
2018-02-14T05:49:15.126Z,75.10
2018-02-14T05:51:43.165Z,75.00
2018-02-14T05:54:11.491Z,74.70
2018-02-14T05:56:39.124Z,74.70
2018-02-14T05:59:06.718Z,74.60
2018-02-14T06:01:34.502Z,74.60
2018-02-14T06:04:02.063Z,74.80
2018-02-14T06:06:30.341Z,74.50
2018-02-14T06:08:58.414Z,75.30
2018-02-14T06:11:25.974Z,75.20
2018-02-14T06:13:53.553Z,74.80
2018-02-14T06:16:21.589Z,74.30
2018-02-14T06:18:49.210Z,74.70
2018-02-14T06:21:17.143Z,75.10
2018-02-14T06:23:44.734Z,75.60
2018-02-14T06:26:12.345Z,75.40
2018-02-14T06:28:39.929Z,75.60
2018-02-14T06:31:08.295Z,75.00
2018-02-14T06:33:35.965Z,75.40
2018-02-14T06:36:04.690Z,74.90
2018-02-14T06:38:33.069Z,75.70
2018-02-14T06:41:01.484Z,76.00
2018-02-14T06:43:29.093Z,75.90
2018-02-14T06:45:56.705Z,76.40
2018-02-14T06:48:24.294Z,76.10
2018-02-14T06:50:53.272Z,75.50
2018-02-14T06:53:20.878Z,74.90
2018-02-14T06:55:48.447Z,75.30
2018-02-14T06:58:16.207Z,75.70
2018-02-14T07:00:43.830Z,74.80
2018-02-14T07:03:11.391Z,74.80
2018-02-14T07:05:38.948Z,75.30
2018-02-14T07:08:06.550Z,75.30
2018-02-14T07:10:34.144Z,75.40
2018-02-14T07:13:03.114Z,76.00
2018-02-14T07:15:30.848Z,75.50
2018-02-14T07:17:58.409Z,75.70
2018-02-14T07:20:27.050Z,75.60
2018-02-14T07:22:56.553Z,75.60
2018-02-14T07:25:24.402Z,75.20
2018-02-14T07:27:51.961Z,75.80
2018-02-14T07:30:19.611Z,75.90
2018-02-14T07:32:47.380Z,75.80
2018-02-14T07:35:14.986Z,75.40
2018-02-14T07:37:45.417Z,75.40
2018-02-14T07:40:14.214Z,75.10
2018-02-14T07:42:42.623Z,75.40
2018-02-14T07:45:10.234Z,76.30
2018-02-14T07:47:37.826Z,77.30
2018-02-14T07:50:05.427Z,77.80
2018-02-14T07:52:33.510Z,77.50
2018-02-14T07:55:01.112Z,77.60
2018-02-14T07:57:29.084Z,77.30
2018-02-14T07:59:57.442Z,77.70
2018-02-14T08:02:25.067Z,77.40
2018-02-14T08:04:52.649Z,76.60
2018-02-14T08:07:20.285Z,76.80
2018-02-14T08:09:49.076Z,75.40
2018-02-14T08:12:16.740Z,75.40
2018-02-14T08:14:44.333Z,76.00
2018-02-14T08:17:12.566Z,75.00
2018-02-14T08:19:40.898Z,74.70
2018-02-14T08:22:09.456Z,74.70
2018-02-14T08:24:37.714Z,74.60
2018-02-14T08:27:05.514Z,73.60
2018-02-14T08:29:35.088Z,74.30
2018-02-14T08:32:02.721Z,74.40
2018-02-14T08:34:30.708Z,74.00
2018-02-14T08:36:58.756Z,74.70
2018-02-14T08:39:26.489Z,74.80
2018-02-14T08:41:54.081Z,74.70
2018-02-14T08:44:23.550Z,74.90
2018-02-14T08:46:51.902Z,75.10
2018-02-14T08:49:19.740Z,74.60
2018-02-14T08:51:47.742Z,74.60
2018-02-14T08:54:15.394Z,72.00
2018-02-14T08:56:43.738Z,72.50
2018-02-14T08:59:11.534Z,71.80
2018-02-14T09:01:39.753Z,72.30
2018-02-14T09:04:08.223Z,73.20
2018-02-14T09:06:35.821Z,73.20
2018-02-14T09:09:03.528Z,74.60
2018-02-14T09:11:31.096Z,74.20
2018-02-14T09:13:58.705Z,75.40
2018-02-14T09:16:26.325Z,76.10
2018-02-14T09:18:53.901Z,76.90
2018-02-14T09:21:21.492Z,77.40
2018-02-14T09:23:50.389Z,77.60
2018-02-14T09:26:18.714Z,78.50
2018-02-14T09:28:46.283Z,78.40
2018-02-14T09:31:13.909Z,79.30
2018-02-14T09:33:41.467Z,79.60
2018-02-14T09:36:09.254Z,79.70
2018-02-14T09:38:37.644Z,79.20
2018-02-14T09:41:05.238Z,79.80
2018-02-14T09:43:32.810Z,80.50
2018-02-14T09:46:00.429Z,81.50
2018-02-14T09:48:27.996Z,80.90
2018-02-14T09:50:55.687Z,81.00
2018-02-14T09:53:23.757Z,81.70
2018-02-14T09:55:51.759Z,82.60
2018-02-14T09:58:19.336Z,82.40
2018-02-14T10:00:47.426Z,82.40
2018-02-14T10:03:15.774Z,82.80
2018-02-14T10:05:43.568Z,83.50
2018-02-14T10:08:12.002Z,83.20
2018-02-14T10:10:40.211Z,83.30
2018-02-14T10:13:08.458Z,82.90
2018-02-14T10:15:36.378Z,82.50
2018-02-14T10:18:03.962Z,82.70
2018-02-14T10:20:31.557Z,82.70
2018-02-14T10:22:59.535Z,82.60
2018-02-14T10:25:28.524Z,82.80
2018-02-14T10:27:56.090Z,82.80
2018-02-14T10:30:24.446Z,82.00
2018-02-14T10:32:52.006Z,82.10
2018-02-14T10:35:19.614Z,82.80
2018-02-14T10:37:47.965Z,82.50
2018-02-14T10:40:15.593Z,82.50
2018-02-14T10:42:43.808Z,82.40
2018-02-14T10:45:11.361Z,82.10
2018-02-14T10:47:38.936Z,82.50
2018-02-14T10:50:06.555Z,82.60
2018-02-14T10:52:34.183Z,82.70
2018-02-14T10:55:02.263Z,82.80
2018-02-14T10:57:29.813Z,83.00
2018-02-14T10:59:58.243Z,81.40
2018-02-14T11:02:25.821Z,81.40
2018-02-14T11:05:00.286Z,81.70
2018-02-14T11:07:27.901Z,81.60
2018-02-14T11:09:55.457Z,81.80
2018-02-14T11:12:23.049Z,81.90
2018-02-14T11:14:50.645Z,82.20
2018-02-14T11:17:19.597Z,81.40
2018-02-14T11:19:47.801Z,81.30
2018-02-14T11:22:16.137Z,81.10
2018-02-14T11:24:43.710Z,81.60
2018-02-14T11:27:12.592Z,80.80
2018-02-14T11:29:40.914Z,81.30
2018-02-14T11:32:08.473Z,81.80
2018-02-14T11:34:36.073Z,82.50
2018-02-14T11:37:04.396Z,82.30
2018-02-14T11:39:32.280Z,82.30
2018-02-14T11:41:59.860Z,82.00
2018-02-14T11:44:28.182Z,82.40
2018-02-14T11:46:56.206Z,82.70
2018-02-14T11:49:23.896Z,82.60
2018-02-14T11:51:51.525Z,82.60
2018-02-14T11:54:19.117Z,82.30
2018-02-14T11:56:46.719Z,83.00
2018-02-14T11:59:14.265Z,83.60
2018-02-14T12:01:41.848Z,84.50
2018-02-14T12:04:09.429Z,83.70
2018-02-14T12:06:36.991Z,84.00
2018-02-14T12:09:04.983Z,83.70
2018-02-14T12:11:32.546Z,84.40
2018-02-14T12:14:00.875Z,83.30
2018-02-14T12:16:28.789Z,83.20
2018-02-14T12:18:56.351Z,83.20
2018-02-14T12:21:25.437Z,83.00
2018-02-14T12:23:53.034Z,83.00
2018-02-14T12:26:21.357Z,84.70
2018-02-14T12:28:49.839Z,84.00
2018-02-14T12:31:17.387Z,84.30
2018-02-14T12:33:44.941Z,84.00
2018-02-14T12:36:12.527Z,85.30
2018-02-14T12:38:40.083Z,85.10
2018-02-14T12:41:08.229Z,85.50
2018-02-14T12:43:37.334Z,86.90
2018-02-14T12:46:05.688Z,86.80
2018-02-14T12:48:33.249Z,86.70
2018-02-14T12:51:00.854Z,86.80
2018-02-14T12:53:28.432Z,86.20
2018-02-14T12:55:56.274Z,86.10
2018-02-14T12:58:25.318Z,86.20
2018-02-14T13:00:52.882Z,86.20
2018-02-14T13:03:20.442Z,85.90
2018-02-14T13:05:48.014Z,86.20
2018-02-14T13:08:15.589Z,86.20
2018-02-14T13:10:43.146Z,86.40
2018-02-14T13:13:12.565Z,86.40
2018-02-14T13:15:40.901Z,87.00
2018-02-14T13:18:08.457Z,87.00
2018-02-14T13:20:36.041Z,87.10
2018-02-14T13:23:03.602Z,87.30
2018-02-14T13:25:31.570Z,87.70
2018-02-14T13:27:59.178Z,88.00
2018-02-14T13:30:28.948Z,87.50
2018-02-14T13:32:56.562Z,87.40
2018-02-14T13:35:24.925Z,88.60
2018-02-14T13:37:54.009Z,88.40
2018-02-14T13:40:21.631Z,88.40
2018-02-14T13:42:49.323Z,88.80
2018-02-14T13:45:16.913Z,89.40
2018-02-14T13:47:44.513Z,89.40
2018-02-14T13:50:12.228Z,89.50
2018-02-14T13:52:39.778Z,89.10
2018-02-14T13:55:07.367Z,88.90
2018-02-14T13:57:34.960Z,89.10
2018-02-14T14:00:04.615Z,88.60
2018-02-14T14:02:33.202Z,88.70
2018-02-14T14:05:00.782Z,88.70
2018-02-14T14:07:28.927Z,88.50
2018-02-14T14:09:57.273Z,88.10
2018-02-14T14:12:24.849Z,88.40
2018-02-14T14:14:52.598Z,88.60
2018-02-14T14:17:20.955Z,88.10
2018-02-14T14:19:49.306Z,88.40
2018-02-14T14:22:17.729Z,88.40
2018-02-14T14:24:46.835Z,87.80
2018-02-14T14:27:15.190Z,87.80
2018-02-14T14:29:42.770Z,87.70
2018-02-14T14:32:11.901Z,88.60
2018-02-14T14:34:39.514Z,88.10
2018-02-14T14:37:07.838Z,88.20
2018-02-14T14:39:35.459Z,88.40
2018-02-14T14:42:03.745Z,87.90
2018-02-14T14:44:31.343Z,87.90
2018-02-14T14:46:58.967Z,87.80
2018-02-14T14:49:26.560Z,88.50
2018-02-14T14:51:54.890Z,89.40
2018-02-14T14:54:22.470Z,89.40
2018-02-14T14:56:50.062Z,89.30
2018-02-14T14:59:17.649Z,89.20
2018-02-14T15:01:45.215Z,89.60
2018-02-14T15:04:12.814Z,90.00
2018-02-14T15:06:40.430Z,90.00
2018-02-14T15:09:08.215Z,89.60
2018-02-14T15:11:35.882Z,88.60
2018-02-14T15:14:03.478Z,89.10
2018-02-14T15:16:31.846Z,89.40
2018-02-14T15:18:59.637Z,88.80
2018-02-14T15:21:29.778Z,88.80
2018-02-14T15:23:58.208Z,88.90
2018-02-14T15:26:26.065Z,88.80
2018-02-14T15:28:53.655Z,88.50
2018-02-14T15:31:21.265Z,88.10
2018-02-14T15:33:48.906Z,88.80
2018-02-14T15:36:16.545Z,88.90
2018-02-14T15:38:44.141Z,88.80
2018-02-14T15:41:12.618Z,89.10
2018-02-14T15:43:41.503Z,89.40
2018-02-14T15:46:09.143Z,89.30
2018-02-14T15:48:36.729Z,90.00
2018-02-14T15:51:04.437Z,89.60
2018-02-14T15:53:33.262Z,90.10
2018-02-14T15:56:00.948Z,89.80
2018-02-14T15:58:28.529Z,90.20
2018-02-14T16:00:57.098Z,90.50
2018-02-14T16:03:26.211Z,90.60
2018-02-14T16:05:53.778Z,90.60
2018-02-14T16:08:23.505Z,90.50
2018-02-14T16:10:51.838Z,90.50
2018-02-14T16:13:19.425Z,90.50
2018-02-14T16:15:47.809Z,90.50
2018-02-14T16:18:16.094Z,90.40
2018-02-14T16:20:43.675Z,90.70
2018-02-14T16:23:11.576Z,90.50
2018-02-14T16:25:39.952Z,90.80
2018-02-14T16:28:07.859Z,90.80
2018-02-14T16:30:35.454Z,91.10
2018-02-14T16:33:03.114Z,91.20
2018-02-14T16:35:33.256Z,91.10
2018-02-14T16:38:01.086Z,91.10
2018-02-14T16:40:29.435Z,91.20
2018-02-14T16:42:57.286Z,91.00
2018-02-14T16:45:24.877Z,91.10
2018-02-14T16:47:52.485Z,91.30
2018-02-14T16:50:20.835Z,91.20
2018-02-14T16:52:49.466Z,91.20
2018-02-14T16:55:17.071Z,91.20
2018-02-14T16:57:45.047Z,91.20
2018-02-14T17:00:12.800Z,91.30
2018-02-14T17:02:41.622Z,91.30
2018-02-14T17:05:10.661Z,91.50
2018-02-14T17:07:39.626Z,91.50
2018-02-14T17:10:07.214Z,91.70
2018-02-14T17:12:34.805Z,91.50
2018-02-14T17:15:02.573Z,91.70
2018-02-14T17:17:30.333Z,91.70
2018-02-14T17:19:59.273Z,91.70
2018-02-14T17:22:26.830Z,91.70
2018-02-14T17:24:54.397Z,91.70
2018-02-14T17:27:23.305Z,91.70
2018-02-14T17:29:51.886Z,91.60
2018-02-14T17:32:19.575Z,91.60
2018-02-14T17:34:47.311Z,91.70
2018-02-14T17:37:15.897Z,91.90
2018-02-14T17:39:43.472Z,91.90
2018-02-14T17:42:11.905Z,92.20
2018-02-14T17:44:40.653Z,92.20
2018-02-14T17:47:09.021Z,92.30
2018-02-14T17:49:36.638Z,92.30
2018-02-14T17:52:06.474Z,92.50
2018-02-14T17:54:34.073Z,92.50
2018-02-14T17:57:02.498Z,92.40
2018-02-14T17:59:30.303Z,92.60
2018-02-14T18:01:58.394Z,92.80
2018-02-14T18:04:26.097Z,92.80
2018-02-14T18:06:53.692Z,92.80
2018-02-14T18:09:21.286Z,92.60
2018-02-14T18:11:48.848Z,92.60
2018-02-14T18:14:17.507Z,92.60
2018-02-14T18:16:45.060Z,92.60
2018-02-14T18:19:12.983Z,92.60
2018-02-14T18:21:40.860Z,92.70
2018-02-14T18:24:10.253Z,92.90
2018-02-14T18:26:37.826Z,92.80
2018-02-14T18:29:05.508Z,92.90
2018-02-14T18:31:33.171Z,93.00
2018-02-14T18:34:02.098Z,92.90
2018-02-14T18:36:29.678Z,93.10
2018-02-14T18:38:58.062Z,93.40
2018-02-14T18:41:27.002Z,93.40
2018-02-14T18:43:59.637Z,93.40
2018-02-14T18:46:29.261Z,93.20
2018-02-14T18:48:57.654Z,93.00
2018-02-14T18:51:26.198Z,93.10
2018-02-14T18:53:53.754Z,93.10
2018-02-14T18:56:21.319Z,93.20
2018-02-14T18:58:49.535Z,93.50
2018-02-14T19:01:17.857Z,93.20
2018-02-14T19:03:46.382Z,93.20
2018-02-14T19:06:14.754Z,93.40
2018-02-14T19:08:43.823Z,93.50
2018-02-14T19:11:11.429Z,93.50
2018-02-14T19:13:39.440Z,93.40
2018-02-14T19:16:07.121Z,93.50
2018-02-14T19:18:35.699Z,93.50
2018-02-14T19:21:03.310Z,93.60
2018-02-14T19:23:31.444Z,93.50
2018-02-14T19:25:59.006Z,93.50
2018-02-14T19:28:26.563Z,93.50
2018-02-14T19:30:55.185Z,93.60
2018-02-14T19:33:22.781Z,93.70
2018-02-14T19:35:51.132Z,93.00
2018-02-14T19:38:19.333Z,93.00
2018-02-14T19:40:47.742Z,93.10
2018-02-14T19:43:15.314Z,93.10
2018-02-14T19:45:43.305Z,93.00
2018-02-14T19:48:12.036Z,93.10
2018-02-14T19:50:40.278Z,93.30
2018-02-14T19:53:09.022Z,93.50
2018-02-14T19:55:36.611Z,93.70
2018-02-14T19:58:04.600Z,94.10
2018-02-14T20:00:33.646Z,94.20
2018-02-14T20:03:02.045Z,94.10
2018-02-14T20:05:30.330Z,94.10
2018-02-14T20:07:58.030Z,93.90
2018-02-14T20:10:25.950Z,93.70
2018-02-14T20:12:54.854Z,93.40
2018-02-14T20:15:23.487Z,93.40
2018-02-14T20:17:51.897Z,93.30
2018-02-14T20:20:19.505Z,93.20
2018-02-14T20:22:47.395Z,92.90
2018-02-14T20:25:15.855Z,92.80
2018-02-14T20:27:43.468Z,92.80
2018-02-14T20:30:11.086Z,92.60
2018-02-14T20:32:38.716Z,93.20
2018-02-14T20:35:06.566Z,93.10
2018-02-14T20:37:34.993Z,93.10
2018-02-14T20:40:02.582Z,93.00
2018-02-14T20:42:30.184Z,92.80
2018-02-14T20:44:57.790Z,92.70
2018-02-14T20:47:25.353Z,92.50
2018-02-14T20:49:53.220Z,92.40
2018-02-14T20:52:21.782Z,92.40
2018-02-14T20:54:49.759Z,92.40
2018-02-14T20:57:17.339Z,92.40
2018-02-14T20:59:45.768Z,92.50
2018-02-14T21:02:13.428Z,92.40
2018-02-14T21:04:41.801Z,92.50
2018-02-14T21:07:09.389Z,92.40
2018-02-14T21:09:37.725Z,92.40
2018-02-14T21:12:05.431Z,92.10
2018-02-14T21:14:33.017Z,92.00
2018-02-14T21:17:01.293Z,91.90
2018-02-14T21:19:29.671Z,92.00
2018-02-14T21:21:57.521Z,91.90
2018-02-14T21:24:25.232Z,91.90
2018-02-14T21:26:52.813Z,91.90
2018-02-14T21:29:20.409Z,91.70
2018-02-14T21:31:47.984Z,91.30
2018-02-14T21:34:16.448Z,91.00
2018-02-14T21:36:44.269Z,91.00
2018-02-14T21:39:11.878Z,90.80
2018-02-14T21:41:39.517Z,90.60
2018-02-14T21:44:07.117Z,90.70
2018-02-14T21:46:34.737Z,90.70
2018-02-14T21:49:02.942Z,90.60
2018-02-14T21:51:30.557Z,90.60
2018-02-14T21:53:58.142Z,90.60
2018-02-14T21:56:25.926Z,90.50
2018-02-14T21:58:55.515Z,90.60
2018-02-14T22:01:24.039Z,90.70
2018-02-14T22:03:52.486Z,90.70
2018-02-14T22:06:20.136Z,90.70
2018-02-14T22:08:47.770Z,90.70
2018-02-14T22:11:16.141Z,90.80
2018-02-14T22:13:44.576Z,90.90
2018-02-14T22:16:12.832Z,90.80
2018-02-14T22:18:41.407Z,90.80
2018-02-14T22:21:09.018Z,90.90
2018-02-14T22:23:37.152Z,90.80
2018-02-14T22:26:05.702Z,90.90
2018-02-14T22:28:33.318Z,91.00
2018-02-14T22:31:01.205Z,90.80
2018-02-14T22:33:28.869Z,90.90
2018-02-14T22:35:56.443Z,90.90
2018-02-14T22:38:24.050Z,90.90
2018-02-14T22:40:52.414Z,91.00
2018-02-14T22:43:20.399Z,91.00
2018-02-14T22:45:48.748Z,91.10
2018-02-14T22:48:16.339Z,91.10
2018-02-14T22:50:45.387Z,91.30
2018-02-14T22:53:14.519Z,91.20
2018-02-14T22:55:42.086Z,91.20
2018-02-14T22:58:09.693Z,91.00
2018-02-14T23:00:37.325Z,91.10
2018-02-14T23:03:05.694Z,91.10
2018-02-14T23:05:34.125Z,91.10
2018-02-14T23:08:02.542Z,91.30
2018-02-14T23:10:31.360Z,91.50
2018-02-14T23:12:59.016Z,91.70
2018-02-14T23:15:27.846Z,91.30
2018-02-14T23:17:55.789Z,91.40
2018-02-14T23:20:23.378Z,91.40
2018-02-14T23:22:52.176Z,91.40
2018-02-14T23:25:19.770Z,91.40
2018-02-14T23:27:47.453Z,91.60
2018-02-14T23:30:15.368Z,91.60
2018-02-14T23:32:44.128Z,91.70
2018-02-14T23:35:11.730Z,91.50
2018-02-14T23:37:39.750Z,91.70
2018-02-14T23:40:07.309Z,91.50
2018-02-14T23:42:35.681Z,91.30
2018-02-14T23:45:04.317Z,91.60
2018-02-14T23:47:31.958Z,91.40
2018-02-14T23:50:00.894Z,91.70
2018-02-14T23:52:28.578Z,91.40
2018-02-14T23:54:56.144Z,91.20
2018-02-14T23:57:24.465Z,91.10
2018-02-14T23:59:52.844Z,90.90
